createdAt,value
2019-03-27T00:22:59.804Z,98.60
2019-03-27T00:53:03.808Z,98.50
2019-03-27T01:23:07.654Z,98.70
2019-03-27T01:53:11.419Z,98.60
2019-03-27T02:23:15.416Z,96.90
2019-03-27T02:53:19.184Z,99.70
2019-03-27T03:23:22.972Z,99.90
2019-03-27T03:53:27.547Z,99.90
2019-03-27T04:23:31.452Z,99.90
2019-03-27T04:53:35.441Z,99.90
2019-03-27T05:23:39.128Z,99.90
2019-03-27T05:53:42.937Z,99.90
2019-03-27T06:23:46.658Z,99.90
2019-03-27T06:53:50.647Z,99.90
2019-03-27T07:23:54.362Z,91.10
2019-03-27T07:53:58.387Z,76.90
2019-03-27T08:24:02.190Z,72.40
2019-03-27T08:54:05.904Z,66.00
2019-03-27T09:24:10.461Z,58.30
2019-03-27T09:54:14.340Z,45.80
2019-03-27T10:24:18.147Z,46.60
2019-03-27T10:54:21.773Z,52.70
2019-03-27T11:24:25.627Z,51.80
2019-03-27T11:54:29.579Z,52.80
2019-03-27T12:24:33.276Z,52.70
2019-03-27T12:54:37.184Z,57.30
2019-03-27T13:24:40.963Z,50.80
2019-03-27T13:54:44.879Z,54.00
2019-03-27T14:24:48.761Z,54.10
2019-03-27T14:54:52.552Z,56.40
2019-03-27T15:24:56.371Z,64.00
2019-03-27T15:55:00.429Z,65.90
2019-03-27T16:25:05.924Z,78.20
2019-03-27T16:55:10.112Z,82.30
2019-03-27T17:25:14.929Z,87.10
2019-03-27T17:55:18.681Z,90.40
2019-03-27T18:25:22.584Z,92.70
2019-03-27T18:55:27.226Z,94.10
2019-03-27T19:25:31.119Z,95.50
2019-03-27T19:55:34.903Z,95.80
2019-03-27T20:25:38.761Z,95.60
2019-03-27T20:55:42.591Z,94.90
2019-03-27T21:25:46.474Z,94.10
2019-03-27T21:55:50.280Z,93.90
2019-03-27T22:25:54.704Z,94.10
2019-03-27T22:55:58.526Z,97.40
2019-03-27T23:26:03.497Z,95.70
2019-03-27T23:56:16.597Z,97.20
